Terminal Aerodrome Forecast
Issued by NWS Wilmington, OH

Current Version | Previous Version | Graphics & Text | Print | Product List | Glossary On
Versions: 1 2 3 4 5 6 7 8 9 10 11 12 13 14 15 16 17 18 19
000
FTUS41 KILN 230900 AAA
TAFDAY
TAF AMD
KDAY 230905Z 2309/2406 24006KT P6SM BKN090
      TEMPO 2309/2310 34018G25KT 3SM -TSRA BR OVC050CB
     FM231000 28007KT 5SM -SHRA BR VCTS BKN040CB
      TEMPO 2310/2311 3SM -TSRA BR OVC035CB
     FM231400 29010KT 5SM -SHRA VCTS OVC040CB
     FM231800 34010KT P6SM BKN040
     FM232300 01010KT P6SM BKN100
     FM240500 01008KT P6SM SCT100=

USA.gov is the U.S. government's official web portal to all federal, state and local government web resources and services.